createdAt,value
2023-05-09T00:01:47.518Z,17.60
2023-05-09T00:04:15.999Z,16.73
2023-05-09T00:06:42.397Z,17.17
2023-05-09T00:09:08.852Z,18.13
2023-05-09T00:11:35.182Z,16.90
2023-05-09T00:14:02.379Z,17.27
2023-05-09T00:16:28.725Z,16.45
2023-05-09T00:18:55.966Z,17.02
2023-05-09T00:21:22.319Z,17.13
2023-05-09T00:23:48.626Z,16.75
2023-05-09T00:26:15.776Z,17.38
2023-05-09T00:28:43.083Z,16.83
2023-05-09T00:31:09.411Z,17.15
2023-05-09T00:33:35.804Z,17.40
2023-05-09T00:36:02.142Z,18.48
2023-05-09T00:38:28.461Z,17.55
2023-05-09T00:40:54.776Z,17.63
2023-05-09T00:43:21.436Z,15.80
2023-05-09T00:45:48.076Z,18.30
2023-05-09T00:48:15.561Z,16.75
2023-05-09T00:50:42.418Z,17.30
2023-05-09T00:53:09.087Z,16.33
2023-05-09T00:55:35.871Z,17.13
2023-05-09T00:58:03.712Z,17.50
2023-05-09T01:00:30.131Z,17.75
2023-05-09T01:02:56.926Z,18.25
2023-05-09T01:05:29.293Z,16.85
2023-05-09T01:08:13.312Z,17.08
2023-05-09T01:10:47.646Z,16.98
2023-05-09T01:13:29.852Z,18.40
2023-05-09T01:16:08.472Z,17.63
2023-05-09T01:18:45.721Z,17.52
2023-05-09T01:21:17.213Z,18.33
2023-05-09T01:23:44.056Z,16.52
2023-05-09T01:26:52.091Z,18.30
2023-05-09T01:29:44.230Z,18.02
2023-05-09T01:32:15.878Z,18.13
2023-05-09T01:34:45.021Z,18.50
2023-05-09T01:37:15.478Z,17.52
2023-05-09T01:39:47.536Z,18.37
2023-05-09T01:42:16.536Z,18.25
2023-05-09T01:44:45.421Z,17.52
2023-05-09T01:47:12.712Z,18.15
2023-05-09T01:49:41.282Z,17.02
2023-05-09T01:52:11.152Z,18.50
2023-05-09T01:54:40.286Z,16.47
2023-05-09T01:57:07.976Z,18.02
2023-05-09T01:59:35.768Z,19.75
2023-05-09T02:02:03.964Z,19.90
2023-05-09T02:04:30.969Z,19.40
2023-05-09T02:06:58.940Z,20.38
2023-05-09T02:09:25.820Z,18.30
2023-05-09T02:11:52.230Z,18.88
2023-05-09T02:14:19.532Z,17.35
2023-05-09T02:16:45.993Z,15.60
2023-05-09T02:19:12.338Z,16.60
2023-05-09T02:21:38.922Z,18.38
2023-05-09T02:24:05.935Z,18.30
2023-05-09T02:26:33.158Z,18.92
2023-05-09T02:29:00.667Z,18.45
2023-05-09T02:31:29.560Z,19.85
2023-05-09T02:33:57.354Z,20.17
2023-05-09T02:36:24.251Z,19.35
2023-05-09T02:38:51.199Z,19.17
2023-05-09T02:41:17.511Z,19.77
2023-05-09T02:43:44.224Z,20.75
2023-05-09T02:46:10.859Z,21.08
2023-05-09T02:48:37.516Z,20.50
2023-05-09T02:51:04.814Z,18.92
2023-05-09T02:53:31.191Z,18.85
2023-05-09T02:55:57.513Z,20.35
2023-05-09T02:58:23.884Z,18.90
2023-05-09T03:00:50.824Z,17.52
2023-05-09T03:03:17.918Z,18.92
2023-05-09T03:05:45.012Z,18.80
2023-05-09T03:08:11.437Z,21.17
2023-05-09T03:10:37.883Z,18.95
2023-05-09T03:13:04.926Z,19.75
2023-05-09T03:15:32.081Z,19.95
2023-05-09T03:17:59.743Z,19.60
2023-05-09T03:20:27.301Z,19.60
2023-05-09T03:22:53.764Z,20.33
2023-05-09T03:25:20.483Z,18.48
2023-05-09T03:27:46.790Z,20.30
2023-05-09T03:30:15.068Z,20.63
2023-05-09T03:32:43.302Z,20.42
2023-05-09T03:35:09.920Z,20.30
2023-05-09T03:37:36.719Z,19.83
2023-05-09T03:40:05.722Z,17.05
2023-05-09T03:42:38.986Z,18.52
2023-05-09T03:45:05.687Z,16.98
2023-05-09T03:47:32.139Z,19.20
2023-05-09T03:49:58.711Z,17.27
2023-05-09T03:52:25.611Z,18.95
2023-05-09T03:54:51.964Z,18.08
2023-05-09T03:57:18.439Z,16.90
2023-05-09T03:59:47.015Z,19.05
2023-05-09T04:02:14.727Z,17.48
2023-05-09T04:04:41.168Z,18.52
2023-05-09T04:07:08.029Z,17.75
2023-05-09T04:09:34.697Z,18.20
2023-05-09T04:12:01.020Z,18.55
2023-05-09T04:14:27.404Z,18.65
2023-05-09T04:16:54.257Z,19.02
2023-05-09T04:19:20.739Z,18.35
2023-05-09T04:21:47.573Z,17.55
2023-05-09T04:24:13.948Z,19.00
2023-05-09T04:26:46.424Z,20.58
2023-05-09T04:29:16.304Z,20.67
2023-05-09T04:31:48.012Z,20.23
2023-05-09T04:34:15.681Z,20.65
2023-05-09T04:36:42.429Z,20.25
2023-05-09T04:39:10.235Z,19.63
2023-05-09T04:41:38.994Z,18.70
2023-05-09T04:44:05.416Z,19.55
2023-05-09T04:46:31.911Z,18.13
2023-05-09T04:48:58.310Z,21.35
2023-05-09T04:51:26.143Z,18.88
2023-05-09T04:53:52.475Z,18.92
2023-05-09T04:56:22.540Z,19.50
2023-05-09T04:58:51.252Z,19.20
2023-05-09T05:01:17.624Z,18.92
2023-05-09T05:03:45.896Z,19.02
2023-05-09T05:06:12.240Z,19.92
2023-05-09T05:08:40.476Z,17.88
2023-05-09T05:11:06.875Z,18.08
2023-05-09T05:13:33.832Z,18.02
2023-05-09T05:16:01.417Z,18.95
2023-05-09T05:18:27.816Z,18.67
2023-05-09T05:20:54.321Z,19.67
2023-05-09T05:23:20.930Z,19.20
2023-05-09T05:25:49.290Z,19.17
2023-05-09T05:28:16.015Z,18.98
2023-05-09T05:30:42.381Z,19.88
2023-05-09T05:33:08.743Z,18.20
2023-05-09T05:35:35.461Z,19.27
2023-05-09T05:38:01.887Z,20.05
2023-05-09T05:40:28.669Z,19.45
2023-05-09T05:42:55.977Z,18.98
2023-05-09T05:45:23.473Z,20.55
2023-05-09T05:47:54.280Z,19.98
2023-05-09T05:50:22.517Z,21.42
2023-05-09T05:52:49.014Z,19.75
2023-05-09T05:55:17.541Z,19.52
2023-05-09T05:57:45.652Z,20.05
2023-05-09T06:00:15.115Z,20.60
2023-05-09T06:02:47.719Z,20.38
2023-05-09T06:05:21.592Z,22.00
2023-05-09T06:07:48.064Z,21.25
2023-05-09T06:10:15.947Z,22.90
2023-05-09T06:12:43.426Z,22.52
2023-05-09T06:15:10.236Z,23.10
2023-05-09T06:17:40.811Z,21.08
2023-05-09T06:20:07.627Z,22.92
2023-05-09T06:22:34.322Z,21.67
2023-05-09T06:25:00.678Z,23.05
2023-05-09T06:27:27.038Z,22.00
2023-05-09T06:29:53.463Z,22.25
2023-05-09T06:32:19.805Z,22.35
2023-05-09T06:34:46.215Z,22.13
2023-05-09T06:37:12.582Z,22.48
2023-05-09T06:39:38.879Z,24.05
2023-05-09T06:42:05.370Z,23.73
2023-05-09T06:44:36.808Z,24.55
2023-05-09T06:47:03.111Z,24.92
2023-05-09T06:49:29.489Z,23.55
2023-05-09T06:51:55.803Z,26.45
2023-05-09T06:54:22.113Z,24.83
2023-05-09T06:56:48.465Z,23.88
2023-05-09T06:59:16.412Z,26.73
2023-05-09T07:01:43.025Z,26.30
2023-05-09T07:04:09.453Z,25.33
2023-05-09T07:06:35.952Z,26.25
2023-05-09T07:09:03.630Z,23.25
2023-05-09T07:11:37.411Z,25.67
2023-05-09T07:14:04.133Z,28.40
2023-05-09T07:16:30.508Z,26.67
2023-05-09T07:18:56.829Z,27.23
2023-05-09T07:21:23.197Z,25.85
2023-05-09T07:23:49.524Z,30.33
2023-05-09T07:26:15.848Z,37.50
2023-05-09T07:28:42.196Z,32.58
2023-05-09T07:31:09.296Z,36.08
2023-05-09T07:33:36.004Z,36.90
2023-05-09T07:36:02.750Z,35.90
2023-05-09T07:38:29.069Z,37.22
2023-05-09T07:40:55.371Z,34.75
2023-05-09T07:43:21.655Z,37.63
2023-05-09T07:45:48.057Z,39.30
2023-05-09T07:48:14.414Z,34.10
2023-05-09T07:50:40.777Z,34.88
2023-05-09T07:53:07.080Z,35.75
2023-05-09T07:55:33.403Z,32.40
2023-05-09T07:57:59.688Z,35.40
2023-05-09T08:00:26.018Z,32.92
2023-05-09T08:02:52.960Z,31.92
2023-05-09T08:05:19.924Z,32.45
2023-05-09T08:07:46.504Z,34.03
2023-05-09T08:10:12.942Z,31.27
2023-05-09T08:12:39.643Z,33.88
2023-05-09T08:15:06.727Z,33.38
2023-05-09T08:17:33.096Z,31.98
2023-05-09T08:19:59.446Z,32.40
2023-05-09T08:22:25.761Z,28.83
2023-05-09T08:24:52.260Z,30.33
2023-05-09T08:27:18.579Z,33.42
2023-05-09T08:29:45.426Z,31.55
2023-05-09T08:32:11.736Z,30.17
2023-05-09T08:34:38.148Z,31.30
2023-05-09T08:37:04.699Z,28.10
2023-05-09T08:39:31.439Z,30.27
2023-05-09T08:41:59.331Z,30.45
2023-05-09T08:44:27.792Z,29.85
2023-05-09T08:46:58.295Z,32.53
2023-05-09T08:49:25.508Z,32.05
2023-05-09T08:51:52.582Z,30.33
2023-05-09T08:54:20.664Z,32.53
2023-05-09T08:56:49.558Z,30.35
2023-05-09T08:59:17.177Z,31.90
2023-05-09T09:01:43.649Z,31.92
2023-05-09T09:04:11.883Z,29.92
2023-05-09T09:06:39.652Z,30.60
2023-05-09T09:09:08.916Z,30.13
2023-05-09T09:12:12.510Z,30.73
2023-05-09T09:14:54.278Z,31.63
2023-05-09T09:18:07.405Z,28.80
2023-05-09T09:23:32.572Z,30.67
2023-05-09T09:26:06.708Z,30.02
2023-05-09T09:28:33.628Z,32.17
2023-05-09T10:02:19.212Z,31.88
2023-05-09T10:08:06.969Z,30.65
2023-05-09T10:11:04.351Z,31.98
2023-05-09T10:13:38.325Z,27.92
2023-05-09T10:16:08.031Z,29.77
2023-05-09T10:18:43.380Z,32.13
2023-05-09T10:21:24.494Z,33.58
2023-05-09T10:27:19.115Z,32.72
2023-05-09T10:30:15.546Z,37.22
2023-05-09T10:32:56.628Z,37.22
2023-05-09T10:35:49.299Z,35.67
2023-05-09T10:38:21.650Z,35.75
2023-05-09T10:41:00.453Z,40.20
2023-05-09T10:43:39.837Z,43.15
2023-05-09T10:46:10.534Z,42.65
2023-05-09T10:48:47.258Z,41.40
2023-05-09T10:51:16.256Z,37.72
2023-05-09T10:54:02.338Z,44.30
2023-05-09T10:56:48.069Z,40.63
2023-05-09T10:59:38.376Z,41.78
2023-05-09T11:02:20.800Z,45.63
2023-05-09T11:04:55.612Z,45.28
2023-05-09T11:07:43.374Z,42.95
2023-05-09T11:10:21.950Z,38.97
2023-05-09T11:13:01.846Z,39.90
2023-05-09T11:15:33.156Z,36.60
2023-05-09T11:18:09.838Z,36.65
2023-05-09T11:20:44.448Z,38.17
2023-05-09T11:23:34.967Z,36.25
2023-05-09T11:26:08.546Z,35.40
2023-05-09T11:28:50.012Z,38.17
2023-05-09T11:31:22.184Z,35.38
2023-05-09T11:34:05.044Z,37.50
2023-05-09T11:43:19.544Z,38.67
2023-05-09T11:46:11.797Z,42.40
2023-05-09T12:03:41.689Z,41.13
2023-05-09T12:06:32.983Z,43.50
2023-05-09T12:09:02.534Z,41.20
2023-05-09T12:11:32.247Z,42.75
2023-05-09T12:14:05.021Z,41.53
2023-05-09T12:16:55.930Z,34.63
2023-05-09T12:19:41.244Z,40.60
2023-05-09T12:22:19.274Z,38.08
2023-05-09T12:24:53.043Z,36.38
2023-05-09T12:27:21.269Z,33.75
2023-05-09T12:29:48.722Z,37.97
2023-05-09T12:32:21.005Z,37.53
2023-05-09T12:34:57.424Z,33.38
2023-05-09T12:37:23.906Z,33.45
2023-05-09T12:40:26.108Z,33.90
2023-05-09T12:42:54.254Z,32.80
2023-05-09T12:45:21.161Z,32.05
2023-05-09T12:47:51.834Z,29.88
2023-05-09T12:50:21.349Z,29.38
2023-05-09T12:53:02.723Z,27.23
2023-05-09T12:55:41.097Z,29.42
2023-05-09T12:58:09.963Z,30.60
2023-05-09T13:00:45.008Z,28.95
2023-05-09T13:03:31.737Z,26.58
2023-05-09T13:06:02.345Z,27.15
2023-05-09T13:08:29.748Z,29.73
2023-05-09T13:11:14.857Z,31.13
2023-05-09T13:13:51.654Z,32.03
2023-05-09T13:16:19.805Z,30.77
2023-05-09T13:18:52.386Z,32.63
2023-05-09T13:21:19.234Z,31.17
2023-05-09T13:23:45.798Z,33.83
2023-05-09T13:26:12.284Z,34.30
2023-05-09T13:28:39.300Z,30.98
2023-05-09T13:31:06.654Z,31.25
2023-05-09T13:33:36.809Z,34.45
2023-05-09T13:36:09.260Z,27.75
2023-05-09T13:38:38.751Z,27.15
2023-05-09T13:41:05.891Z,28.55
2023-05-09T13:43:32.173Z,28.33
2023-05-09T13:45:58.595Z,28.17
2023-05-09T13:48:25.011Z,30.85
2023-05-09T13:50:51.675Z,26.50
2023-05-09T13:53:18.043Z,27.23
2023-05-09T13:55:45.405Z,28.60
2023-05-09T13:58:12.520Z,27.25
2023-05-09T14:00:38.811Z,29.73
2023-05-09T14:03:05.375Z,30.88
2023-05-09T14:05:32.008Z,29.33
2023-05-09T14:07:58.407Z,28.92
2023-05-09T14:10:26.610Z,29.83
2023-05-09T14:12:53.947Z,32.78
2023-05-09T14:15:20.509Z,31.45
2023-05-09T14:17:46.976Z,30.15
2023-05-09T14:20:15.575Z,27.88
2023-05-09T14:22:42.593Z,27.75
2023-05-09T14:25:09.200Z,28.23
2023-05-09T14:27:38.339Z,25.80
2023-05-09T14:30:05.036Z,29.40
2023-05-09T14:32:31.574Z,28.60
2023-05-09T14:34:58.030Z,29.83
2023-05-09T14:37:24.381Z,27.63
2023-05-09T14:39:50.801Z,29.70
2023-05-09T14:42:17.245Z,32.55
2023-05-09T14:44:44.642Z,29.58
2023-05-09T14:47:11.054Z,28.80
2023-05-09T14:49:39.698Z,32.70
2023-05-09T14:52:06.026Z,30.63
2023-05-09T14:54:32.537Z,28.52
2023-05-09T14:56:59.472Z,33.38
2023-05-09T14:59:25.857Z,33.95
2023-05-09T15:01:52.591Z,32.22
2023-05-09T15:04:19.018Z,33.08
2023-05-09T15:06:45.777Z,32.10
2023-05-09T15:09:12.917Z,29.60
2023-05-09T15:11:47.415Z,29.15
2023-05-09T15:14:15.089Z,27.08
2023-05-09T15:16:41.734Z,31.52
2023-05-09T15:19:09.199Z,27.20
2023-05-09T15:21:35.818Z,28.95
2023-05-09T15:24:02.485Z,26.30
2023-05-09T15:26:29.143Z,25.30
2023-05-09T15:28:55.468Z,25.42
2023-05-09T15:31:23.215Z,25.45
2023-05-09T15:33:49.556Z,22.73
2023-05-09T15:36:16.232Z,26.55
2023-05-09T15:38:42.606Z,26.33
2023-05-09T15:41:09.213Z,24.38
2023-05-09T15:43:35.493Z,24.50
2023-05-09T15:46:02.390Z,23.83
2023-05-09T15:48:28.784Z,26.23
2023-05-09T15:50:55.103Z,26.23
2023-05-09T15:53:23.321Z,22.58
2023-05-09T15:55:49.909Z,22.33
2023-05-09T15:58:16.376Z,22.10
2023-05-09T16:00:42.766Z,23.08
2023-05-09T16:03:09.338Z,22.25
2023-05-09T16:05:35.785Z,23.13
2023-05-09T16:08:02.232Z,23.63
2023-05-09T16:10:28.530Z,22.65
2023-05-09T16:12:54.929Z,20.92
2023-05-09T16:15:21.359Z,24.27
2023-05-09T16:17:47.761Z,24.02
2023-05-09T16:20:14.297Z,24.88
2023-05-09T16:22:41.619Z,23.92
2023-05-09T16:25:08.600Z,24.58
2023-05-09T16:27:34.990Z,24.35
2023-05-09T16:30:01.680Z,21.63
2023-05-09T16:32:28.183Z,23.30
2023-05-09T16:34:54.534Z,22.58
2023-05-09T16:37:20.843Z,23.77
2023-05-09T16:39:47.346Z,23.15
2023-05-09T16:42:13.662Z,22.50
2023-05-09T16:44:40.043Z,22.50
2023-05-09T16:47:06.893Z,23.38
2023-05-09T16:49:33.252Z,23.77
2023-05-09T16:51:59.767Z,24.83
2023-05-09T16:54:26.068Z,24.00
2023-05-09T16:56:52.486Z,24.70
2023-05-09T16:59:19.971Z,24.08
2023-05-09T17:01:47.470Z,25.13
2023-05-09T17:04:14.464Z,23.38
2023-05-09T17:06:40.970Z,24.40
2023-05-09T17:09:07.566Z,25.02
2023-05-09T17:11:33.987Z,24.33
2023-05-09T17:14:02.310Z,24.88
2023-05-09T17:16:28.956Z,23.63
2023-05-09T17:18:55.387Z,23.98
2023-05-09T17:21:22.865Z,26.70
2023-05-09T17:23:49.189Z,24.98
2023-05-09T17:26:15.553Z,22.30
2023-05-09T17:28:41.898Z,22.88
2023-05-09T17:31:08.345Z,25.10
2023-05-09T17:33:34.741Z,28.00
2023-05-09T17:36:01.475Z,24.25
2023-05-09T17:38:27.878Z,24.52
2023-05-09T17:40:54.293Z,24.05
2023-05-09T17:43:21.604Z,24.60
2023-05-09T17:45:48.005Z,23.25
2023-05-09T17:48:14.454Z,23.98
2023-05-09T17:50:40.916Z,24.15
2023-05-09T17:53:09.323Z,22.75
2023-05-09T17:55:36.010Z,21.25
2023-05-09T17:58:02.508Z,21.67
2023-05-09T18:00:29.199Z,21.02
2023-05-09T18:02:57.704Z,21.92
2023-05-09T18:05:26.210Z,18.90
2023-05-09T18:07:53.525Z,17.00
2023-05-09T18:10:20.535Z,15.63
2023-05-09T18:12:47.338Z,14.77
2023-05-09T18:15:14.029Z,15.10
2023-05-09T18:17:40.593Z,13.95
2023-05-09T18:20:08.455Z,12.63
2023-05-09T18:22:34.791Z,13.55
2023-05-09T18:25:01.121Z,13.50
2023-05-09T18:27:27.440Z,11.38
2023-05-09T18:29:54.062Z,12.43
2023-05-09T18:32:20.655Z,12.18
2023-05-09T18:34:48.321Z,11.70
2023-05-09T18:37:14.695Z,10.80
2023-05-09T18:39:41.016Z,10.90
2023-05-09T18:42:07.439Z,9.23
2023-05-09T18:44:33.804Z,8.77
2023-05-09T18:47:00.365Z,7.70
2023-05-09T18:49:26.973Z,6.63
2023-05-09T18:51:53.361Z,8.27
2023-05-09T18:54:19.724Z,7.75
2023-05-09T18:56:46.559Z,15.75
2023-05-09T18:59:16.050Z,11.40
2023-05-09T19:01:43.836Z,7.70
2023-05-09T19:04:10.220Z,7.13
2023-05-09T19:06:36.696Z,8.15
2023-05-09T19:09:04.211Z,7.35
2023-05-09T19:11:30.606Z,6.75
2023-05-09T19:13:56.962Z,7.50
2023-05-09T19:16:24.598Z,7.13
2023-05-09T19:18:51.243Z,7.68
2023-05-09T19:21:18.630Z,8.40
2023-05-09T19:23:47.641Z,8.00
2023-05-09T19:26:15.348Z,6.32
2023-05-09T19:28:42.386Z,7.18
2023-05-09T19:31:10.023Z,7.57
2023-05-09T19:33:36.427Z,8.30
2023-05-09T19:36:02.927Z,7.80
2023-05-09T19:38:30.448Z,7.82
2023-05-09T19:40:56.799Z,8.25
2023-05-09T19:43:23.150Z,8.07
2023-05-09T19:45:49.523Z,7.90
2023-05-09T19:48:15.890Z,7.70
2023-05-09T19:50:43.169Z,7.30
2023-05-09T19:53:09.660Z,8.20
2023-05-09T19:55:36.619Z,7.88
2023-05-09T19:58:03.293Z,8.50
2023-05-09T20:00:29.611Z,8.30
2023-05-09T20:02:55.994Z,8.93
2023-05-09T20:05:22.326Z,8.70
2023-05-09T20:07:49.319Z,8.30
2023-05-09T20:10:16.143Z,7.80
2023-05-09T20:12:43.359Z,9.23
2023-05-09T20:15:10.083Z,9.43
2023-05-09T20:17:36.505Z,8.85
2023-05-09T20:20:04.084Z,8.43
2023-05-09T20:22:30.414Z,8.75
2023-05-09T20:24:56.749Z,9.00
2023-05-09T20:27:23.504Z,10.27
2023-05-09T20:29:49.833Z,11.82
2023-05-09T20:32:16.136Z,9.27
2023-05-09T20:34:42.463Z,8.88
2023-05-09T20:37:08.924Z,7.85
2023-05-09T20:39:35.358Z,8.77
2023-05-09T20:42:02.312Z,7.72
2023-05-09T20:44:29.068Z,7.53
2023-05-09T20:46:55.609Z,7.43
2023-05-09T20:49:22.652Z,8.43
2023-05-09T20:51:49.073Z,8.07
2023-05-09T20:54:17.494Z,7.25
2023-05-09T20:56:43.774Z,7.38
2023-05-09T20:59:10.120Z,7.43
2023-05-09T21:01:36.652Z,6.97
2023-05-09T21:04:08.163Z,5.80
2023-05-09T21:06:36.032Z,5.47
2023-05-09T21:09:03.234Z,4.00
2023-05-09T21:11:30.123Z,4.20
2023-05-09T21:13:56.543Z,4.20
2023-05-09T21:22:43.508Z,3.60
2023-05-09T21:25:10.025Z,3.55
2023-05-09T21:27:36.316Z,3.35
2023-05-09T21:30:02.689Z,3.97
2023-05-09T21:32:29.047Z,3.40
2023-05-09T21:34:55.501Z,3.70
2023-05-09T21:37:21.836Z,3.88
2023-05-09T21:39:48.197Z,2.42
2023-05-09T21:42:14.625Z,2.90
2023-05-09T21:44:41.023Z,2.38
2023-05-09T21:47:07.418Z,2.35
2023-05-09T21:49:33.812Z,2.42
2023-05-09T21:52:00.186Z,2.05
2023-05-09T21:54:26.489Z,1.60
2023-05-09T21:56:52.771Z,1.38
2023-05-09T21:59:20.720Z,1.95
2023-05-09T22:01:47.050Z,1.08
2023-05-09T22:04:13.395Z,1.45
2023-05-09T22:06:41.564Z,1.30
2023-05-09T22:09:09.084Z,0.77
2023-05-09T22:11:35.560Z,0.90
2023-05-09T22:14:01.916Z,1.00
2023-05-09T22:16:28.724Z,1.10
2023-05-09T22:18:55.713Z,0.68
2023-05-09T22:21:22.016Z,0.55
2023-05-09T22:23:48.319Z,0.75
2023-05-09T22:26:14.621Z,0.60
2023-05-09T22:28:40.983Z,0.80
2023-05-09T22:31:07.619Z,0.60
2023-05-09T22:33:34.343Z,0.50
2023-05-09T22:36:01.039Z,0.63
2023-05-09T22:38:27.353Z,0.50
2023-05-09T22:40:53.627Z,0.50
2023-05-09T22:43:20.207Z,0.60
2023-05-09T22:45:46.550Z,0.38
2023-05-09T22:48:12.872Z,0.40
2023-05-09T22:50:39.153Z,0.52
2023-05-09T22:53:05.463Z,0.52
2023-05-09T22:55:31.807Z,0.63
2023-05-09T22:57:58.092Z,0.30
2023-05-09T23:00:24.380Z,0.40
2023-05-09T23:02:50.949Z,0.40
2023-05-09T23:05:17.386Z,0.50
2023-05-09T23:07:44.524Z,0.43
2023-05-09T23:10:10.881Z,0.43
2023-05-09T23:12:37.995Z,0.45
2023-05-09T23:15:06.272Z,0.80
2023-05-09T23:17:32.630Z,0.50
2023-05-09T23:20:00.535Z,0.45
2023-05-09T23:22:26.987Z,0.55
2023-05-09T23:24:53.355Z,0.50
2023-05-09T23:27:19.637Z,0.40
2023-05-09T23:29:45.932Z,0.43
2023-05-09T23:32:12.269Z,0.40
2023-05-09T23:34:38.807Z,0.60
2023-05-09T23:37:05.139Z,0.50
2023-05-09T23:39:31.582Z,0.40
2023-05-09T23:41:58.135Z,0.43
2023-05-09T23:44:25.438Z,0.55
2023-05-09T23:46:51.841Z,0.60
2023-05-09T23:49:18.199Z,0.40
2023-05-09T23:51:44.517Z,0.43
2023-05-09T23:54:10.797Z,0.30
2023-05-09T23:56:37.218Z,0.40
2023-05-09T23:59:03.520Z,0.50
